Aaron Joseph — WCV9877 — position and weather

sailwx.info

Track history (hours):
 
Tides and Currents Weather Stations Pressure Air Temp Water Temp Dewpoint Dewpoint Depression Visibility Wind Speed Wind Dir Waves Ship Positions

Aaron Joseph

Owner: AARON JOSEPH INC, GOLDEN MEADOW, LA. More information available from US FCC via Universal Licensing System and Coast Guard Vessel Documentation Center.

Last reported at 2016-Feb-12 09:31 UTC. Time now 2016-Feb-12 09:54 UTC.
Position N 29°33' W 090°42'.

; draft 2.5 m.

Type: Tug. MMSI: 367028680.

Date/timePositionNaut miles runAvg speedWind from/ knotsBaromVisibWave heightAir tempDewpointWater temp
2016-Feb-12 09:31N 29°33' W 090°42'0 0.0
2016-Feb-12 08:31N 29°33' W 090°42'0 0.0
2016-Feb-12 07:31N 29°33' W 090°42'0 0.0
2016-Feb-12 06:31N 29°33' W 090°42'0 0.0
2016-Feb-12 05:31N 29°33' W 090°42'0 0.0
2016-Feb-12 04:31N 29°33' W 090°42'0 0.0
2016-Feb-12 03:31N 29°33' W 090°42'0 0.0
2016-Feb-12 02:31N 29°33' W 090°42'0 0.0
2016-Feb-12 01:31N 29°33' W 090°42'0 0.0
2016-Feb-12 00:31N 29°33' W 090°42'0 0.0
2016-Feb-11 23:31N 29°33' W 090°42'0 0.0
2016-Feb-11 22:31N 29°33' W 090°42'0 0.0
2016-Feb-11 21:31N 29°33' W 090°42'0 0.0
2016-Feb-11 20:31N 29°33' W 090°42'0 0.0
2016-Feb-11 19:31N 29°33' W 090°42'0 0.0
2016-Feb-11 18:31N 29°33' W 090°42'0 0.0
2016-Feb-11 17:31N 29°33' W 090°42'0 0.0
2016-Feb-11 16:31N 29°33' W 090°42'1 0.8
2016-Feb-11 15:32N 29°33' W 090°43'0 0.0
2016-Feb-11 14:32N 29°33' W 090°43'0 0.1
2016-Feb-11 13:31N 29°33' W 090°43'1 0.8
2016-Feb-11 12:33N 29°33' W 090°42'0 0.0
2016-Feb-11 11:28N 29°33' W 090°42'0 0.0
2016-Feb-11 10:28N 29°33' W 090°42'0 0.0
2016-Feb-11 09:28N 29°33' W 090°42'0 0.0
2016-Feb-11 08:31N 29°33' W 090°42'0 0.0
2016-Feb-11 07:28N 29°33' W 090°42'0 0.0
2016-Feb-11 06:31N 29°33' W 090°42'0 0.0
2016-Feb-11 05:31N 29°33' W 090°42'0 0.0
2016-Feb-11 04:31N 29°33' W 090°42'0 0.0
2016-Feb-11 03:31N 29°33' W 090°42'0 0.0
2016-Feb-11 02:31N 29°33' W 090°42'0 0.0
2016-Feb-11 01:31N 29°33' W 090°42'1 1.4
2016-Feb-11 00:33N 29°34' W 090°43'3 2.9
2016-Feb-10 23:33N 29°36' W 090°41'0 0.1
2016-Feb-10 22:33N 29°36' W 090°41'3 2.7
2016-Feb-10 21:33N 29°34' W 090°43'2 1.7
2016-Feb-10 20:33N 29°33' W 090°42'4 3.8
2016-Feb-10 19:33N 29°37' W 090°41'5 1.5
2016-Feb-10 16:33N 29°35' W 090°37'5 5.4
2016-Feb-10 15:33N 29°36' W 090°43'3 2.8
2016-Feb-10 14:33N 29°33' W 090°42'0 0.0
2016-Feb-10 13:33N 29°33' W 090°42'0 0.2
2016-Feb-10 12:33N 29°33' W 090°42'0 0.1
2016-Feb-10 11:34N 29°33' W 090°42'0 0.0
2016-Feb-10 10:33N 29°33' W 090°42'0 0.0
2016-Feb-10 09:34N 29°33' W 090°42'0 0.0
2016-Feb-10 08:31N 29°33' W 090°42'0 0.0
2016-Feb-10 07:33N 29°33' W 090°42'0 0.0
2016-Feb-10 06:30N 29°33' W 090°42'0 0.0
2016-Feb-10 05:34N 29°33' W 090°42'0 0.0
2016-Feb-10 04:33N 29°33' W 090°42'0 0.0
2016-Feb-10 03:34N 29°33' W 090°42'1 1.3
2016-Feb-10 02:33N 29°34' W 090°43'3 2.9
2016-Feb-10 01:33N 29°36' W 090°41'5 2.0
2016-Feb-09 23:11N 29°35' W 090°36'4 6.3
2016-Feb-09 22:33N 29°36' W 090°40'0 0.0
2016-Feb-09 17:11N 29°36' W 090°40'0 0.3
2016-Feb-09 16:32N 29°36' W 090°40'0 0.0
2016-Feb-09 15:32N 29°36' W 090°40'0 0.0
2016-Feb-09 14:33N 29°36' W 090°40'0 0.0
2016-Feb-09 13:33N 29°36' W 090°40'0 0.0
2016-Feb-09 12:33N 29°36' W 090°40'0 0.2
2016-Feb-09 11:33N 29°36' W 090°40'0 0.0
2016-Feb-09 10:33N 29°36' W 090°40'0 0.0
2016-Feb-09 09:33N 29°36' W 090°40'0 0.0
2016-Feb-09 08:33N 29°36' W 090°40'0 0.0
2016-Feb-09 07:33N 29°36' W 090°40'0 0.0
2016-Feb-09 06:27N 29°36' W 090°40'0 0.0
2016-Feb-09 04:33N 29°36' W 090°40'2 0.3
2016-Feb-08 23:33N 29°35' W 090°38'2 0.3
2016-Feb-08 14:28N 29°35' W 090°36'0 0.0
2016-Feb-08 13:28N 29°35' W 090°36'0 0.0
2016-Feb-08 12:16N 29°35' W 090°36'0 0.0
2016-Feb-08 10:22N 29°35' W 090°36'0 0.0
2016-Feb-08 09:22N 29°35' W 090°36'0 0.0
2016-Feb-08 08:28N 29°35' W 090°36'0 0.0
2016-Feb-08 07:04N 29°35' W 090°36'0 0.0
2016-Feb-08 06:28N 29°35' W 090°36'0 0.0
2016-Feb-08 05:28N 29°35' W 090°36'0 0.0
2016-Feb-08 04:28N 29°35' W 090°36'0 0.0
2016-Feb-08 03:28N 29°35' W 090°36'0 0.0
2016-Feb-08 02:16N 29°35' W 090°36'0 0.0
2016-Feb-07 18:16N 29°35' W 090°36'0 0.0
2016-Feb-07 14:28N 29°35' W 090°36'0 0.0
2016-Feb-07 13:16N 29°35' W 090°36'0 0.0
2016-Feb-07 12:28N 29°35' W 090°36'0 0.0
2016-Feb-07 11:28N 29°35' W 090°36'0 0.0
2016-Feb-07 10:28N 29°35' W 090°36'0 0.0
2016-Feb-07 08:28N 29°35' W 090°36'0 0.0
2016-Feb-07 07:28N 29°35' W 090°36'0 0.0
2016-Feb-07 06:28N 29°35' W 090°36'0 0.0
2016-Feb-07 05:28N 29°35' W 090°36'0 0.0
2016-Feb-07 04:28N 29°35' W 090°36'0 0.0
2016-Feb-07 03:10N 29°35' W 090°36'0 0.0
2016-Feb-07 02:16N 29°35' W 090°36'0 0.0
2016-Feb-07 01:28N 29°35' W 090°36'0 0.0
2016-Feb-07 00:16N 29°35' W 090°36'0 0.0
2016-Feb-06 22:16N 29°35' W 090°36'0 0.0
2016-Feb-06 21:04N 29°35' W 090°36'0 0.0
2016-Feb-06 20:28N 29°35' W 090°36'0 0.0
2016-Feb-06 18:22N 29°35' W 090°36'0 0.0
2016-Feb-06 16:28N 29°35' W 090°36'0 0.0
2016-Feb-06 15:28N 29°35' W 090°36'0 0.0
2016-Feb-06 14:16N 29°35' W 090°36'0 0.0
2016-Feb-06 13:22N 29°35' W 090°36'0 0.0
2016-Feb-06 12:28N 29°35' W 090°36'0 0.0
2016-Feb-06 11:22N 29°35' W 090°36'0 0.0
2016-Feb-06 10:28N 29°35' W 090°36'0 0.0
2016-Feb-06 09:28N 29°35' W 090°36'0 0.0
2016-Feb-06 08:10N 29°35' W 090°36'0 0.0
2016-Feb-06 07:28N 29°35' W 090°36'0 0.0
2016-Feb-06 06:28N 29°35' W 090°36'0 0.0
2016-Feb-06 05:22N 29°35' W 090°36'0 0.0
2016-Feb-06 04:28N 29°35' W 090°36'0 0.0
2016-Feb-06 03:28N 29°35' W 090°36'0 0.0
2016-Feb-06 02:16N 29°35' W 090°36'0 0.0
2016-Feb-06 01:28N 29°35' W 090°36'0 0.0
2016-Feb-05 23:04N 29°35' W 090°36'0 0.0
2016-Feb-05 17:28N 29°35' W 090°36'0 0.0
2016-Feb-05 16:22N 29°35' W 090°36'0 0.0
2016-Feb-05 15:28N 29°35' W 090°36'0 0.0
2016-Feb-05 14:28N 29°35' W 090°36'0 0.0
2016-Feb-05 13:28N 29°35' W 090°36'0 0.0
2016-Feb-05 12:22N 29°35' W 090°36'0 0.0
2016-Feb-05 11:28N 29°35' W 090°36'0 0.0
2016-Feb-05 10:22N 29°35' W 090°36'4 5.2
2016-Feb-05 09:33N 29°34' W 090°31'3 1.0
2016-Feb-05 06:15N 29°35' W 090°28'5 0.3
2016-Feb-04 13:33N 29°34' W 090°33'3 2.4
2016-Feb-04 12:18N 29°35' W 090°36'0 0.0
2016-Feb-04 11:30N 29°35' W 090°36'0 0.0
2016-Feb-04 10:30N 29°35' W 090°36'0 0.0
2016-Feb-04 09:30N 29°35' W 090°36'0 0.0
2016-Feb-04 08:30N 29°35' W 090°36'0 0.0
2016-Feb-04 07:30N 29°35' W 090°36'0 0.0
2016-Feb-04 06:30N 29°35' W 090°36'0 0.0
2016-Feb-04 05:30N 29°35' W 090°36'0 0.0
2016-Feb-04 04:30N 29°35' W 090°36'0 0.0
2016-Feb-04 03:30N 29°35' W 090°36'0 0.0
2016-Feb-04 02:30N 29°35' W 090°36'0 0.0
2016-Feb-04 01:30N 29°35' W 090°36'0 0.0
2016-Feb-04 00:30N 29°35' W 090°36'0 0.0
2016-Feb-03 23:30N 29°35' W 090°36'0 0.0
2016-Feb-03 22:30N 29°35' W 090°36'0 0.0
2016-Feb-03 21:30N 29°35' W 090°36'4 4.3
2016-Feb-03 20:33N 29°34' W 090°31'1 0.3
2016-Feb-03 16:33N 29°34' W 090°30'6 5.8
2016-Feb-03 15:33N 29°35' W 090°36'4 3.9
2016-Feb-03 14:33N 29°36' W 090°40'1 0.5
2016-Feb-03 13:33N 29°36' W 090°41'1 0.6
2016-Feb-03 12:31N 29°36' W 090°40'0 0.0
2016-Feb-03 11:19N 29°36' W 090°40'0 0.0
2016-Feb-03 10:31N 29°36' W 090°40'0 0.0
2016-Feb-03 09:31N 29°36' W 090°40'0 0.0
2016-Feb-03 08:31N 29°36' W 090°40'0 0.0
2016-Feb-03 07:31N 29°36' W 090°40'0 0.0
2016-Feb-03 06:31N 29°36' W 090°40'0 0.0
2016-Feb-03 05:31N 29°36' W 090°40'0 0.0
2016-Feb-03 04:31N 29°36' W 090°40'0 0.0
2016-Feb-03 03:13N 29°36' W 090°40'0 0.0
2016-Feb-03 02:25N 29°36' W 090°40'0 0.0
2016-Feb-03 01:31N 29°36' W 090°40'0 0.0
2016-Feb-03 00:31N 29°36' W 090°40'0 0.0
2016-Feb-02 23:31N 29°36' W 090°40'0 0.0
2016-Feb-02 22:31N 29°36' W 090°40'0 0.0
2016-Feb-02 21:31N 29°36' W 090°40'0 0.0
2016-Feb-02 20:31N 29°36' W 090°40'0 0.0
2016-Feb-02 19:31N 29°36' W 090°40'0 0.0
2016-Feb-02 18:31N 29°36' W 090°40'0 0.0
2016-Feb-02 17:25N 29°36' W 090°40'0 0.0
2016-Feb-02 16:31N 29°36' W 090°40'0 0.0
2016-Feb-02 15:25N 29°36' W 090°40'0 0.0
2016-Feb-02 14:31N 29°36' W 090°40'0 0.0
2016-Feb-02 13:31N 29°36' W 090°40'0 0.0
2016-Feb-02 12:31N 29°36' W 090°40'0 0.0
2016-Feb-02 11:31N 29°36' W 090°40'0 0.0
2016-Feb-02 10:31N 29°36' W 090°40'  
Track history (hours):
 
Tides and Currents Weather Stations Pressure Air Temp Water Temp Dewpoint Dewpoint Depression Visibility Wind Speed Wind Dir Waves Ship Positions

Aaron Joseph

Owner: AARON JOSEPH INC, GOLDEN MEADOW, LA. More information available from US FCC via Universal Licensing System and Coast Guard Vessel Documentation Center.

Last reported at 2016-Feb-12 09:31 UTC. Time now 2016-Feb-12 09:54 UTC.
Position N 29°33' W 090°42'.

; draft 2.5 m.

Type: Tug. MMSI: 367028680.

Date/timePositionNaut miles runAvg speedWind from/ knotsBaromVisibWave heightAir tempDewpointWater temp
2016-Feb-12 09:31N 29°33' W 090°42'0 0.0
2016-Feb-12 08:31N 29°33' W 090°42'0 0.0
2016-Feb-12 07:31N 29°33' W 090°42'0 0.0
2016-Feb-12 06:31N 29°33' W 090°42'0 0.0
2016-Feb-12 05:31N 29°33' W 090°42'0 0.0
2016-Feb-12 04:31N 29°33' W 090°42'0 0.0
2016-Feb-12 03:31N 29°33' W 090°42'0 0.0
2016-Feb-12 02:31N 29°33' W 090°42'0 0.0
2016-Feb-12 01:31N 29°33' W 090°42'0 0.0
2016-Feb-12 00:31N 29°33' W 090°42'0 0.0
2016-Feb-11 23:31N 29°33' W 090°42'0 0.0
2016-Feb-11 22:31N 29°33' W 090°42'0 0.0
2016-Feb-11 21:31N 29°33' W 090°42'0 0.0
2016-Feb-11 20:31N 29°33' W 090°42'0 0.0
2016-Feb-11 19:31N 29°33' W 090°42'0 0.0
2016-Feb-11 18:31N 29°33' W 090°42'0 0.0
2016-Feb-11 17:31N 29°33' W 090°42'0 0.0
2016-Feb-11 16:31N 29°33' W 090°42'1 0.8
2016-Feb-11 15:32N 29°33' W 090°43'0 0.0
2016-Feb-11 14:32N 29°33' W 090°43'0 0.1
2016-Feb-11 13:31N 29°33' W 090°43'1 0.8
2016-Feb-11 12:33N 29°33' W 090°42'0 0.0
2016-Feb-11 11:28N 29°33' W 090°42'0 0.0
2016-Feb-11 10:28N 29°33' W 090°42'0 0.0
2016-Feb-11 09:28N 29°33' W 090°42'0 0.0
2016-Feb-11 08:31N 29°33' W 090°42'0 0.0
2016-Feb-11 07:28N 29°33' W 090°42'0 0.0
2016-Feb-11 06:31N 29°33' W 090°42'0 0.0
2016-Feb-11 05:31N 29°33' W 090°42'0 0.0
2016-Feb-11 04:31N 29°33' W 090°42'0 0.0
2016-Feb-11 03:31N 29°33' W 090°42'0 0.0
2016-Feb-11 02:31N 29°33' W 090°42'0 0.0
2016-Feb-11 01:31N 29°33' W 090°42'1 1.4
2016-Feb-11 00:33N 29°34' W 090°43'3 2.9
2016-Feb-10 23:33N 29°36' W 090°41'0 0.1
2016-Feb-10 22:33N 29°36' W 090°41'3 2.7
2016-Feb-10 21:33N 29°34' W 090°43'2 1.7
2016-Feb-10 20:33N 29°33' W 090°42'4 3.8
2016-Feb-10 19:33N 29°37' W 090°41'5 1.5
2016-Feb-10 16:33N 29°35' W 090°37'5 5.4
2016-Feb-10 15:33N 29°36' W 090°43'3 2.8
2016-Feb-10 14:33N 29°33' W 090°42'0 0.0
2016-Feb-10 13:33N 29°33' W 090°42'0 0.2
2016-Feb-10 12:33N 29°33' W 090°42'0 0.1
2016-Feb-10 11:34N 29°33' W 090°42'0 0.0
2016-Feb-10 10:33N 29°33' W 090°42'0 0.0
2016-Feb-10 09:34N 29°33' W 090°42'0 0.0
2016-Feb-10 08:31N 29°33' W 090°42'0 0.0
2016-Feb-10 07:33N 29°33' W 090°42'0 0.0
2016-Feb-10 06:30N 29°33' W 090°42'0 0.0
2016-Feb-10 05:34N 29°33' W 090°42'0 0.0
2016-Feb-10 04:33N 29°33' W 090°42'0 0.0
2016-Feb-10 03:34N 29°33' W 090°42'1 1.3
2016-Feb-10 02:33N 29°34' W 090°43'3 2.9
2016-Feb-10 01:33N 29°36' W 090°41'5 2.0
2016-Feb-09 23:11N 29°35' W 090°36'4 6.3
2016-Feb-09 22:33N 29°36' W 090°40'0 0.0
2016-Feb-09 17:11N 29°36' W 090°40'0 0.3
2016-Feb-09 16:32N 29°36' W 090°40'0 0.0
2016-Feb-09 15:32N 29°36' W 090°40'0 0.0
2016-Feb-09 14:33N 29°36' W 090°40'0 0.0
2016-Feb-09 13:33N 29°36' W 090°40'0 0.0
2016-Feb-09 12:33N 29°36' W 090°40'0 0.2
2016-Feb-09 11:33N 29°36' W 090°40'0 0.0
2016-Feb-09 10:33N 29°36' W 090°40'0 0.0
2016-Feb-09 09:33N 29°36' W 090°40'0 0.0
2016-Feb-09 08:33N 29°36' W 090°40'0 0.0
2016-Feb-09 07:33N 29°36' W 090°40'0 0.0
2016-Feb-09 06:27N 29°36' W 090°40'0 0.0
2016-Feb-09 04:33N 29°36' W 090°40'2 0.3
2016-Feb-08 23:33N 29°35' W 090°38'2 0.3
2016-Feb-08 14:28N 29°35' W 090°36'0 0.0
2016-Feb-08 13:28N 29°35' W 090°36'0 0.0
2016-Feb-08 12:16N 29°35' W 090°36'0 0.0
2016-Feb-08 10:22N 29°35' W 090°36'0 0.0
2016-Feb-08 09:22N 29°35' W 090°36'0 0.0
2016-Feb-08 08:28N 29°35' W 090°36'0 0.0
2016-Feb-08 07:04N 29°35' W 090°36'0 0.0
2016-Feb-08 06:28N 29°35' W 090°36'0 0.0
2016-Feb-08 05:28N 29°35' W 090°36'0 0.0
2016-Feb-08 04:28N 29°35' W 090°36'0 0.0
2016-Feb-08 03:28N 29°35' W 090°36'0 0.0
2016-Feb-08 02:16N 29°35' W 090°36'0 0.0
2016-Feb-07 18:16N 29°35' W 090°36'0 0.0
2016-Feb-07 14:28N 29°35' W 090°36'0 0.0
2016-Feb-07 13:16N 29°35' W 090°36'0 0.0
2016-Feb-07 12:28N 29°35' W 090°36'0 0.0
2016-Feb-07 11:28N 29°35' W 090°36'0 0.0
2016-Feb-07 10:28N 29°35' W 090°36'0 0.0
2016-Feb-07 08:28N 29°35' W 090°36'0 0.0
2016-Feb-07 07:28N 29°35' W 090°36'0 0.0
2016-Feb-07 06:28N 29°35' W 090°36'0 0.0
2016-Feb-07 05:28N 29°35' W 090°36'0 0.0
2016-Feb-07 04:28N 29°35' W 090°36'0 0.0
2016-Feb-07 03:10N 29°35' W 090°36'0 0.0
2016-Feb-07 02:16N 29°35' W 090°36'0 0.0
2016-Feb-07 01:28N 29°35' W 090°36'0 0.0
2016-Feb-07 00:16N 29°35' W 090°36'0 0.0
2016-Feb-06 22:16N 29°35' W 090°36'0 0.0
2016-Feb-06 21:04N 29°35' W 090°36'0 0.0
2016-Feb-06 20:28N 29°35' W 090°36'0 0.0
2016-Feb-06 18:22N 29°35' W 090°36'0 0.0
2016-Feb-06 16:28N 29°35' W 090°36'0 0.0
2016-Feb-06 15:28N 29°35' W 090°36'0 0.0
2016-Feb-06 14:16N 29°35' W 090°36'0 0.0
2016-Feb-06 13:22N 29°35' W 090°36'0 0.0
2016-Feb-06 12:28N 29°35' W 090°36'0 0.0
2016-Feb-06 11:22N 29°35' W 090°36'0 0.0
2016-Feb-06 10:28N 29°35' W 090°36'0 0.0
2016-Feb-06 09:28N 29°35' W 090°36'0 0.0
2016-Feb-06 08:10N 29°35' W 090°36'0 0.0
2016-Feb-06 07:28N 29°35' W 090°36'0 0.0
2016-Feb-06 06:28N 29°35' W 090°36'0 0.0
2016-Feb-06 05:22N 29°35' W 090°36'0 0.0
2016-Feb-06 04:28N 29°35' W 090°36'0 0.0
2016-Feb-06 03:28N 29°35' W 090°36'0 0.0
2016-Feb-06 02:16N 29°35' W 090°36'0 0.0
2016-Feb-06 01:28N 29°35' W 090°36'0 0.0
2016-Feb-05 23:04N 29°35' W 090°36'0 0.0
2016-Feb-05 17:28N 29°35' W 090°36'0 0.0
2016-Feb-05 16:22N 29°35' W 090°36'0 0.0
2016-Feb-05 15:28N 29°35' W 090°36'0 0.0
2016-Feb-05 14:28N 29°35' W 090°36'0 0.0
2016-Feb-05 13:28N 29°35' W 090°36'0 0.0
2016-Feb-05 12:22N 29°35' W 090°36'0 0.0
2016-Feb-05 11:28N 29°35' W 090°36'0 0.0
2016-Feb-05 10:22N 29°35' W 090°36'4 5.2
2016-Feb-05 09:33N 29°34' W 090°31'3 1.0
2016-Feb-05 06:15N 29°35' W 090°28'5 0.3
2016-Feb-04 13:33N 29°34' W 090°33'3 2.4
2016-Feb-04 12:18N 29°35' W 090°36'0 0.0
2016-Feb-04 11:30N 29°35' W 090°36'0 0.0
2016-Feb-04 10:30N 29°35' W 090°36'0 0.0
2016-Feb-04 09:30N 29°35' W 090°36'0 0.0
2016-Feb-04 08:30N 29°35' W 090°36'0 0.0
2016-Feb-04 07:30N 29°35' W 090°36'0 0.0
2016-Feb-04 06:30N 29°35' W 090°36'0 0.0
2016-Feb-04 05:30N 29°35' W 090°36'0 0.0
2016-Feb-04 04:30N 29°35' W 090°36'0 0.0
2016-Feb-04 03:30N 29°35' W 090°36'0 0.0
2016-Feb-04 02:30N 29°35' W 090°36'0 0.0
2016-Feb-04 01:30N 29°35' W 090°36'0 0.0
2016-Feb-04 00:30N 29°35' W 090°36'0 0.0
2016-Feb-03 23:30N 29°35' W 090°36'0 0.0
2016-Feb-03 22:30N 29°35' W 090°36'0 0.0
2016-Feb-03 21:30N 29°35' W 090°36'4 4.3
2016-Feb-03 20:33N 29°34' W 090°31'1 0.3
2016-Feb-03 16:33N 29°34' W 090°30'6 5.8
2016-Feb-03 15:33N 29°35' W 090°36'4 3.9
2016-Feb-03 14:33N 29°36' W 090°40'1 0.5
2016-Feb-03 13:33N 29°36' W 090°41'1 0.6
2016-Feb-03 12:31N 29°36' W 090°40'0 0.0
2016-Feb-03 11:19N 29°36' W 090°40'0 0.0
2016-Feb-03 10:31N 29°36' W 090°40'0 0.0
2016-Feb-03 09:31N 29°36' W 090°40'0 0.0
2016-Feb-03 08:31N 29°36' W 090°40'0 0.0
2016-Feb-03 07:31N 29°36' W 090°40'0 0.0
2016-Feb-03 06:31N 29°36' W 090°40'0 0.0
2016-Feb-03 05:31N 29°36' W 090°40'0 0.0
2016-Feb-03 04:31N 29°36' W 090°40'0 0.0
2016-Feb-03 03:13N 29°36' W 090°40'0 0.0
2016-Feb-03 02:25N 29°36' W 090°40'0 0.0
2016-Feb-03 01:31N 29°36' W 090°40'0 0.0
2016-Feb-03 00:31N 29°36' W 090°40'0 0.0
2016-Feb-02 23:31N 29°36' W 090°40'0 0.0
2016-Feb-02 22:31N 29°36' W 090°40'0 0.0
2016-Feb-02 21:31N 29°36' W 090°40'0 0.0
2016-Feb-02 20:31N 29°36' W 090°40'0 0.0
2016-Feb-02 19:31N 29°36' W 090°40'0 0.0
2016-Feb-02 18:31N 29°36' W 090°40'0 0.0
2016-Feb-02 17:25N 29°36' W 090°40'0 0.0
2016-Feb-02 16:31N 29°36' W 090°40'0 0.0
2016-Feb-02 15:25N 29°36' W 090°40'0 0.0
2016-Feb-02 14:31N 29°36' W 090°40'0 0.0
2016-Feb-02 13:31N 29°36' W 090°40'0 0.0
2016-Feb-02 12:31N 29°36' W 090°40'0 0.0
2016-Feb-02 11:31N 29°36' W 090°40'0 0.0
2016-Feb-02 10:31N 29°36' W 090°40'  

Dump ship's entire track history